Time;durP1;ratioP1;P1;durP2;ratioP2;P2;SDS_P1;SDS_P2;PMS_P1;PMS_P2;Temp;Humidity;BMP_temperature;BMP_pressure;BME280_temperature;BME280_humidity;BME280_pressure;Samples;Min_cycle;Max_cycle;Signal;HPM_P1;HPM_P2
2021/08/28 00:02:12;;;;;;;12.95;6.38;;;14.80;99.90;;;;;;4968922;28;20675;-47
2021/08/28 00:04:38;;;;;;;11.65;6.25;;;14.70;99.90;;;;;;4967890;28;20046;-48
2021/08/28 00:07:04;;;;;;;13.07;6.20;;;14.70;99.90;;;;;;4968457;28;20054;-48
2021/08/28 00:09:30;;;;;;;16.98;6.30;;;14.70;99.90;;;;;;4968370;28;20046;-45
2021/08/28 00:11:56;;;;;;;16.52;6.72;;;14.70;99.90;;;;;;4966608;28;20054;-49
2021/08/28 00:14:22;;;;;;;15.63;6.43;;;14.70;99.90;;;;;;4963562;28;20051;-48
2021/08/28 00:16:48;;;;;;;12.25;5.90;;;14.70;99.90;;;;;;4967512;28;20074;-47
2021/08/28 00:19:14;;;;;;;10.65;5.63;;;14.70;99.90;;;;;;4964492;28;20090;-47
2021/08/28 00:21:40;;;;;;;13.90;6.50;;;14.70;99.90;;;;;;4964529;28;20098;-45
2021/08/28 00:24:06;;;;;;;19.52;6.65;;;14.70;99.90;;;;;;4957271;28;20066;-45
2021/08/28 00:26:32;;;;;;;14.70;6.90;;;14.70;99.90;;;;;;4960813;28;20142;-50
2021/08/28 00:28:58;;;;;;;14.55;7.10;;;14.70;99.90;;;;;;4966916;28;20423;-45
2021/08/28 00:31:24;;;;;;;15.13;5.82;;;14.70;99.90;;;;;;4969991;28;20579;-47
2021/08/28 00:33:50;;;;;;;12.80;6.00;;;14.70;99.90;;;;;;4949535;28;20054;-49
2021/08/28 00:36:16;;;;;;;13.10;6.75;;;14.70;99.90;;;;;;4949954;28;20468;-49
2021/08/28 00:38:42;;;;;;;17.48;6.80;;;14.70;99.90;;;;;;4968138;28;20059;-49
2021/08/28 00:41:08;;;;;;;17.20;7.18;;;14.60;99.90;;;;;;4967588;28;20131;-49
2021/08/28 00:43:34;;;;;;;12.93;6.78;;;14.60;99.90;;;;;;4969046;28;20089;-46
2021/08/28 00:46:00;;;;;;;17.65;6.70;;;14.50;99.90;;;;;;4952760;28;20506;-48
2021/08/28 00:48:26;;;;;;;19.25;8.00;;;14.50;99.90;;;;;;4962376;28;20059;-46
2021/08/28 00:50:53;;;;;;;18.08;7.25;;;14.50;99.90;;;;;;4931033;29;20141;-47
2021/08/28 00:53:22;;;;;;;13.15;7.50;;;14.60;99.90;;;;;;4953339;28;20515;-45
2021/08/28 00:55:53;;;;;;;19.85;8.10;;;14.60;99.90;;;;;;4931676;28;20058;-45
2021/08/28 00:58:22;;;;;;;19.00;7.95;;;14.60;99.90;;;;;;4953817;28;20058;-46
2021/08/28 01:00:55;;;;;;;15.02;7.75;;;14.60;99.90;;;;;;4959235;28;20091;-46
2021/08/28 01:03:23;;;;;;;17.70;8.02;;;14.60;99.90;;;;;;4964860;28;20063;-45
2021/08/28 01:06:09;;;;;;;17.88;8.32;;;14.70;99.90;;;;;;4945775;28;20055;-45
2021/08/28 01:09:04;;;;;;;16.15;8.15;;;14.70;99.90;;;;;;4911254;29;20052;-45
2021/08/28 01:12:15;;;;;;;18.65;7.95;;;14.70;99.90;;;;;;4870168;29;20071;-48
2021/08/28 01:15:12;;;;;;;15.63;7.70;;;14.80;99.90;;;;;;4869008;29;20061;-45
2021/08/28 01:17:47;;;;;;;16.52;8.20;;;14.80;99.90;;;;;;4869131;29;20065;-49
2021/08/28 01:20:25;;;;;;;18.30;8.10;;;14.80;99.90;;;;;;4869731;29;20558;-49
2021/08/28 01:23:11;;;;;;;18.63;8.52;;;14.80;99.90;;;;;;4870066;29;20109;-46
2021/08/28 01:26:19;;;;;;;17.40;8.25;;;14.90;99.90;;;;;;4816495;29;20061;-45
2021/08/28 01:28:50;;;;;;;15.60;8.98;;;14.90;99.90;;;;;;4814541;29;20091;-47
2021/08/28 01:31:17;;;;;;;;;;;14.90;99.90;;;;;;4817407;29;20059;-46
2021/08/28 01:33:45;;;;;;;19.45;8.30;;;15.00;99.90;;;;;;4815713;29;19986;-46
2021/08/28 01:36:16;;;;;;;14.45;8.63;;;15.00;99.90;;;;;;4799113;29;20089;-49
2021/08/28 01:39:03;;;;;;;15.57;9.05;;;15.00;99.90;;;;;;4806374;29;20225;-44
2021/08/28 01:41:32;;;;;;;15.10;9.13;;;15.10;99.90;;;;;;4796411;29;20086;-49
2021/08/28 01:44:01;;;;;;;14.30;7.90;;;15.10;99.90;;;;;;4777270;29;20943;-45
2021/08/28 01:46:29;;;;;;;18.38;7.70;;;15.10;99.90;;;;;;4839775;29;20061;-49
2021/08/28 01:48:57;;;;;;;15.60;7.13;;;15.20;99.90;;;;;;4850672;29;20069;-48
2021/08/28 01:51:29;;;;;;;13.65;6.97;;;15.20;99.90;;;;;;4850652;29;20205;-45
2021/08/28 01:53:57;;;;;;;10.90;6.45;;;15.20;99.90;;;;;;4838312;29;20141;-47
2021/08/28 01:56:26;;;;;;;13.73;6.45;;;15.20;99.90;;;;;;4833431;29;20103;-45
2021/08/28 01:58:53;;;;;;;11.93;6.57;;;15.30;99.90;;;;;;4846591;29;20862;-48
2021/08/28 02:01:49;;;;;;;12.30;6.13;;;15.30;99.90;;;;;;4829694;29;20049;-45
2021/08/28 02:04:18;;;;;;;13.23;6.95;;;15.30;99.90;;;;;;4850889;29;20077;-49
2021/08/28 02:07:25;;;;;;;16.33;7.95;;;15.30;99.90;;;;;;4834930;29;20064;-48
2021/08/28 02:10:01;;;;;;;14.65;7.80;;;15.30;99.90;;;;;;4835970;29;20537;-48
2021/08/28 02:12:42;;;;;;;15.73;8.65;;;15.20;99.90;;;;;;4835549;29;20834;-46
2021/08/28 02:15:34;;;;;;;11.95;7.53;;;15.20;99.90;;;;;;4856862;29;20061;-45
2021/08/28 02:18:16;;;;;;;13.70;7.70;;;15.20;99.90;;;;;;4917343;29;20060;-47
2021/08/28 02:21:10;;;;;;;12.55;7.97;;;15.10;99.90;;;;;;4906326;29;20087;-47
2021/08/28 02:23:59;;;;;;;13.82;8.60;;;15.10;99.90;;;;;;4906764;29;20191;-45
2021/08/28 02:26:38;;;;;;;16.50;7.95;;;15.10;99.90;;;;;;4891306;29;20060;-46
2021/08/28 02:29:27;;;;;;;15.23;8.20;;;15.10;99.90;;;;;;4908007;29;20064;-46
2021/08/28 02:31:58;;;;;;;13.60;8.27;;;15.10;99.90;;;;;;4908420;29;20060;-50
2021/08/28 02:34:31;;;;;;;12.95;7.78;;;15.20;99.90;;;;;;4889370;29;20470;-45
2021/08/28 02:37:00;;;;;;;11.15;7.45;;;15.20;99.90;;;;;;4901070;29;20058;-46
2021/08/28 02:39:28;;;;;;;15.57;8.23;;;15.20;99.90;;;;;;4944935;28;20131;-53
2021/08/28 02:41:58;;;;;;;15.88;8.82;;;15.20;99.90;;;;;;4953904;28;20193;-47
2021/08/28 02:44:26;;;;;;;14.48;8.63;;;15.20;99.90;;;;;;4953536;28;20046;-46
2021/08/28 02:46:54;;;;;;;11.32;7.72;;;15.20;99.90;;;;;;4947429;28;20165;-48
2021/08/28 02:49:25;;;;;;;13.52;7.85;;;15.20;99.90;;;;;;4947515;28;20499;-49
2021/08/28 02:51:54;;;;;;;13.05;7.63;;;15.20;99.90;;;;;;4952481;28;20500;-47
2021/08/28 02:54:25;;;;;;;10.88;7.47;;;15.20;99.90;;;;;;4966280;28;20153;-50
2021/08/28 02:56:53;;;;;;;13.45;7.07;;;15.20;99.90;;;;;;4952744;28;20518;-47
2021/08/28 02:59:24;;;;;;;12.27;7.70;;;15.20;99.90;;;;;;4958672;28;20389;-48
2021/08/28 03:01:51;;;;;;;12.68;7.43;;;15.20;99.90;;;;;;4959797;28;20700;-47
2021/08/28 03:04:22;;;;;;;16.88;7.45;;;15.20;99.90;;;;;;4937464;28;20051;-48
2021/08/28 03:06:52;;;;;;;11.57;7.47;;;15.20;99.90;;;;;;4939949;28;20491;-46
2021/08/28 03:09:21;;;;;;;15.65;7.57;;;15.10;99.90;;;;;;4951212;29;20055;-49
2021/08/28 03:11:48;;;;;;;10.85;6.60;;;15.10;99.90;;;;;;4933360;28;20094;-47
2021/08/28 03:14:17;;;;;;;12.25;7.07;;;15.10;99.90;;;;;;4952795;28;20055;-48
2021/08/28 03:16:48;;;;;;;13.75;7.35;;;15.10;99.90;;;;;;4951965;28;20150;-48
2021/08/28 03:19:36;;;;;;;15.52;8.15;;;15.10;99.90;;;;;;4961893;28;20106;-45
2021/08/28 03:22:04;;;;;;;10.75;6.60;;;15.10;99.90;;;;;;4934349;29;20055;-47
2021/08/28 03:24:35;;;;;;;14.32;7.32;;;15.10;99.90;;;;;;4948456;28;20090;-46
2021/08/28 03:27:07;;;;;;;14.68;8.00;;;15.00;99.90;;;;;;4952453;28;20051;-47
2021/08/28 03:29:37;;;;;;;18.27;7.25;;;15.00;99.90;;;;;;4938345;28;20062;-47
2021/08/28 03:32:05;;;;;;;13.45;6.20;;;15.10;99.90;;;;;;4950162;28;20059;-49
2021/08/28 03:34:37;;;;;;;16.88;7.07;;;15.10;99.90;;;;;;4950931;28;20605;-45
2021/08/28 03:37:04;;;;;;;13.20;7.25;;;15.10;99.90;;;;;;4951924;28;20130;-45
2021/08/28 03:39:34;;;;;;;12.43;6.82;;;15.10;99.90;;;;;;4966131;28;20714;-47
2021/08/28 03:42:01;;;;;;;9.13;6.25;;;15.10;99.90;;;;;;4962952;28;20066;-49
2021/08/28 03:44:27;;;;;;;13.13;7.18;;;15.10;99.90;;;;;;4932845;29;20920;-45
2021/08/28 03:46:53;;;;;;;14.00;7.07;;;15.10;99.90;;;;;;4954154;28;20051;-45
2021/08/28 03:49:19;;;;;;;21.85;7.10;;;15.10;99.90;;;;;;4948656;28;20104;-48
2021/08/28 03:51:46;;;;;;;9.40;6.30;;;15.10;99.90;;;;;;4938767;28;20055;-48
2021/08/28 03:54:12;;;;;;;11.20;6.43;;;15.20;99.90;;;;;;4950041;28;20058;-48
2021/08/28 03:56:38;;;;;;;11.65;7.35;;;15.20;99.90;;;;;;4931844;28;20499;-44
2021/08/28 03:59:04;;;;;;;12.25;7.10;;;15.20;99.90;;;;;;4939563;28;20149;-45
2021/08/28 04:01:31;;;;;;;12.32;7.43;;;15.20;99.90;;;;;;4948018;28;20061;-45
2021/08/28 04:04:00;;;;;;;12.80;7.72;;;15.20;99.90;;;;;;4952094;28;20077;-46
2021/08/28 04:06:26;;;;;;;15.13;8.00;;;15.20;99.90;;;;;;4952877;28;20077;-48
2021/08/28 04:08:53;;;;;;;10.88;8.20;;;15.20;99.90;;;;;;4950885;28;20055;-45
2021/08/28 04:11:27;;;;;;;12.52;7.65;;;15.20;99.90;;;;;;4942602;28;20054;-48
2021/08/28 04:13:53;;;;;;;18.25;8.35;;;15.20;99.90;;;;;;4932717;29;20066;-48
2021/08/28 04:16:19;;;;;;;13.45;7.63;;;15.20;99.90;;;;;;4960607;28;20055;-48
2021/08/28 04:18:55;;;;;;;14.25;8.00;;;15.20;99.90;;;;;;4951916;28;20145;-46
2021/08/28 04:21:43;;;;;;;12.80;8.65;;;15.20;99.90;;;;;;4943010;28;20055;-47
2021/08/28 04:24:21;;;;;;;14.57;8.40;;;15.20;99.90;;;;;;4948915;28;20113;-46
2021/08/28 04:27:20;;;;;;;13.57;8.60;;;15.20;99.90;;;;;;4907976;29;20056;-47
2021/08/28 04:29:46;;;;;;;12.38;8.10;;;15.20;99.90;;;;;;4908264;29;20089;-48
2021/08/28 04:32:13;;;;;;;14.50;8.82;;;15.20;99.90;;;;;;4905654;29;20060;-47
2021/08/28 04:34:39;;;;;;;14.38;8.43;;;15.20;99.90;;;;;;4906246;29;20060;-48
2021/08/28 04:37:05;;;;;;;18.65;8.57;;;15.20;99.90;;;;;;4909127;29;20052;-44
2021/08/28 04:39:35;;;;;;;14.20;8.95;;;15.20;99.90;;;;;;4906685;29;20098;-44
2021/08/28 04:42:03;;;;;;;13.25;8.57;;;15.20;99.90;;;;;;4909697;29;20080;-45
2021/08/28 04:44:29;;;;;;;16.27;9.25;;;15.20;99.90;;;;;;4908362;29;20052;-45
2021/08/28 04:46:55;;;;;;;15.90;9.38;;;15.20;99.90;;;;;;4908909;29;20071;-47
2021/08/28 04:49:21;;;;;;;17.00;9.45;;;15.20;99.90;;;;;;4906855;29;20056;-45
2021/08/28 04:52:00;;;;;;;17.65;9.20;;;15.20;99.90;;;;;;4891869;29;20055;-49
2021/08/28 04:54:27;;;;;;;19.75;9.82;;;15.20;99.90;;;;;;4890564;29;20091;-46
2021/08/28 04:56:55;;;;;;;14.45;8.05;;;15.30;99.90;;;;;;4910150;29;20098;-49
2021/08/28 04:59:21;;;;;;;16.30;9.38;;;15.30;99.90;;;;;;4889826;29;20088;-49
2021/08/28 05:01:48;;;;;;;14.23;9.40;;;15.30;99.90;;;;;;4904376;29;20127;-48
2021/08/28 05:04:50;;;;;;;;;;;15.30;99.90;;;;;;4945883;28;20579;-48
2021/08/28 05:07:18;;;;;;;16.27;8.35;;;15.40;99.90;;;;;;4947115;29;19927;-52
2021/08/28 05:10:11;;;;;;;14.55;8.45;;;15.40;99.90;;;;;;4944499;29;20634;-52
2021/08/28 05:12:39;;;;;;;17.20;8.60;;;15.80;99.90;;;;;;4931500;29;20055;-55
2021/08/28 05:15:14;;;;;;;16.52;7.95;;;15.90;99.90;;;;;;4930609;29;20544;-49
2021/08/28 05:17:52;;;;;;;11.52;7.32;;;16.00;99.90;;;;;;4946663;29;20074;-54
2021/08/28 05:20:21;;;;;;;12.80;7.65;;;16.00;99.90;;;;;;4929822;29;20058;-52
2021/08/28 05:23:19;;;;;;;12.73;7.25;;;15.90;99.90;;;;;;4944760;28;20081;-50
2021/08/28 05:25:45;;;;;;;14.60;8.02;;;15.80;99.90;;;;;;4946423;29;20055;-49
2021/08/28 05:28:11;;;;;;;12.88;7.68;;;15.80;99.90;;;;;;4930252;29;20581;-52
2021/08/28 05:30:38;;;;;;;14.10;8.02;;;15.80;99.90;;;;;;4930038;29;20167;-49
2021/08/28 05:33:04;;;;;;;14.35;8.13;;;15.80;99.90;;;;;;4930057;29;20051;-50
2021/08/28 05:35:30;;;;;;;16.25;8.43;;;15.90;99.90;;;;;;4929577;29;20055;-49
2021/08/28 05:38:14;;;;;;;16.23;8.52;;;15.90;99.90;;;;;;4930903;29;20062;-48
2021/08/28 05:40:40;;;;;;;17.35;7.78;;;15.80;99.90;;;;;;4932565;29;20591;-47
2021/08/28 05:43:07;;;;;;;15.35;7.57;;;15.90;99.90;;;;;;4934066;28;20516;-51
2021/08/28 05:45:51;;;;;;;14.93;7.80;;;16.00;99.90;;;;;;4935066;29;20047;-49
2021/08/28 05:48:18;;;;;;;12.32;7.97;;;16.00;99.90;;;;;;4931919;29;20063;-53
2021/08/28 05:50:44;;;;;;;9.57;6.80;;;16.00;99.90;;;;;;4948611;29;20063;-50
2021/08/28 05:53:11;;;;;;;15.20;7.43;;;16.00;99.90;;;;;;4928562;29;20063;-49
2021/08/28 05:55:37;;;;;;;15.88;7.72;;;16.00;99.90;;;;;;4948634;29;20531;-50
2021/08/28 05:58:03;;;;;;;10.68;6.65;;;16.00;99.90;;;;;;4938531;28;20059;-51
2021/08/28 06:00:29;;;;;;;12.65;7.53;;;16.00;99.90;;;;;;4951075;28;20062;-50
2021/08/28 06:03:05;;;;;;;14.38;6.93;;;16.00;99.90;;;;;;4975144;28;20130;-53
2021/08/28 06:05:31;;;;;;;16.40;6.70;;;16.00;99.90;;;;;;4935904;29;20055;-52
2021/08/28 06:08:16;;;;;;;16.15;7.60;;;16.00;99.90;;;;;;4956787;28;20051;-50
2021/08/28 06:11:14;;;;;;;18.45;7.38;;;16.10;99.90;;;;;;4915224;29;20509;-51
2021/08/28 06:14:16;;;;;;;19.13;13.23;;;16.10;99.90;;;;;;4855949;29;20053;-51
2021/08/28 06:16:50;;;;;;;22.02;15.35;;;16.10;99.90;;;;;;4855977;29;20080;-51
2021/08/28 06:19:20;;;;;;;;;;;16.20;99.90;;;;;;4864036;29;20060;-52
2021/08/28 06:21:47;;;;;;;16.25;8.55;;;16.20;99.90;;;;;;4868321;29;19924;-48
2021/08/28 06:24:15;;;;;;;15.63;8.48;;;16.20;99.90;;;;;;4875544;29;20517;-49
2021/08/28 06:27:04;;;;;;;14.40;7.22;;;16.20;99.90;;;;;;4858569;29;20064;-51
2021/08/28 06:29:30;;;;;;;39.67;34.42;;;16.20;99.90;;;;;;4874345;29;20071;-49
2021/08/28 06:31:56;;;;;;;22.23;13.07;;;16.30;99.90;;;;;;4858515;29;20223;-50
2021/08/28 06:34:23;;;;;;;18.33;13.15;;;16.30;99.90;;;;;;4873462;29;20609;-50
2021/08/28 06:36:49;;;;;;;30.15;24.42;;;16.30;99.90;;;;;;4881437;29;20458;-51
2021/08/28 06:39:44;;;;;;;85.60;76.63;;;16.30;99.90;;;;;;4819596;29;20181;-50
2021/08/28 06:42:30;;;;;;;30.42;22.25;;;16.40;99.90;;;;;;4836292;29;20062;-49
2021/08/28 06:45:18;;;;;;;45.15;40.38;;;16.50;99.90;;;;;;4821047;29;20523;-50
2021/08/28 06:48:07;;;;;;;16.85;9.52;;;16.50;99.90;;;;;;4872527;29;20060;-54
2021/08/28 06:51:00;;;;;;;23.95;17.20;;;16.60;99.90;;;;;;4836466;29;20578;-51
2021/08/28 06:53:45;;;;;;;33.17;26.77;;;16.60;99.90;;;;;;4839075;29;20096;-51
2021/08/28 06:56:37;;;;;;;15.93;6.57;;;16.70;99.90;;;;;;4818510;29;20062;-51
2021/08/28 06:59:35;;;;;;;15.77;8.02;;;16.80;99.90;;;;;;4805753;29;20062;-51
2021/08/28 07:02:24;;;;;;;14.38;8.32;;;16.80;99.90;;;;;;4781799;30;20062;-51
2021/08/28 07:04:59;;;;;;;45.70;38.05;;;16.90;99.90;;;;;;4753605;29;20079;-50
2021/08/28 07:07:41;;;;;;;47.47;42.25;;;16.90;99.90;;;;;;4764444;30;20066;-50
2021/08/28 07:10:08;;;;;;;80.13;71.22;;;17.00;99.90;;;;;;4779381;29;20060;-52
2021/08/28 07:12:35;;;;;;;39.50;32.75;;;17.00;99.90;;;;;;4781704;29;20136;-52
2021/08/28 07:15:01;;;;;;;31.40;25.48;;;17.10;99.90;;;;;;4780668;29;20486;-52
2021/08/28 07:17:45;;;;;;;13.35;7.15;;;17.10;99.90;;;;;;4802923;29;20099;-50
2021/08/28 07:20:12;;;;;;;23.77;15.35;;;17.20;99.90;;;;;;4811904;29;20058;-49
2021/08/28 07:22:41;;;;;;;39.28;34.00;;;17.20;99.90;;;;;;4812639;29;20055;-53
2021/08/28 07:25:18;;;;;;;18.10;11.80;;;17.20;99.90;;;;;;4785533;29;20055;-51
2021/08/28 07:27:45;;;;;;;25.30;18.90;;;17.20;99.90;;;;;;4819946;29;20093;-48
2021/08/28 07:30:38;;;;;;;;;;;17.30;99.90;;;;;;4848663;29;20094;-53
2021/08/28 07:33:04;;;;;;;21.33;17.75;;;17.40;99.90;;;;;;4865197;29;20139;-51
2021/08/28 07:35:31;;;;;;;36.83;31.92;;;17.70;99.90;;;;;;4874442;29;20087;-52
2021/08/28 07:37:59;;;;;;;16.52;10.68;;;18.00;99.90;;;;;;4842352;29;20475;-49
2021/08/28 07:40:26;;;;;;;15.73;11.55;;;18.20;99.90;;;;;;4953593;28;20043;-51
2021/08/28 07:42:54;;;;;;;14.93;9.18;;;18.20;99.90;;;;;;4938531;28;20404;-54
2021/08/28 07:45:21;;;;;;;22.73;18.58;;;18.30;99.90;;;;;;4934768;29;20058;-50
2021/08/28 07:48:07;;;;;;;9.82;5.50;;;18.30;99.90;;;;;;4942599;28;20570;-51
2021/08/28 07:50:34;;;;;;;21.60;15.45;;;18.20;99.90;;;;;;4946977;29;20408;-51
2021/08/28 07:53:01;;;;;;;15.60;8.48;;;18.30;99.90;;;;;;4928364;29;20070;-49
2021/08/28 07:55:28;;;;;;;9.65;5.13;;;18.50;99.90;;;;;;4935700;28;20405;-53
2021/08/28 07:57:57;;;;;;;15.02;10.73;;;19.00;99.90;;;;;;4929544;29;20060;-50
2021/08/28 08:00:23;;;;;;;44.17;39.17;;;19.70;99.90;;;;;;4916482;29;20139;-52
2021/08/28 08:02:49;;;;;;;27.38;21.92;;;20.20;99.90;;;;;;4928512;29;20039;-54
2021/08/28 08:05:34;;;;;;;22.83;15.05;;;20.70;99.90;;;;;;4942380;29;20087;-53
2021/08/28 08:08:25;;;;;;;29.20;24.42;;;21.20;99.90;;;;;;4912915;29;20202;-53
2021/08/28 08:11:15;;;;;;;13.85;10.20;;;21.50;99.90;;;;;;4940212;29;20093;-53
2021/08/28 08:14:07;;;;;;;48.08;43.05;;;21.90;99.90;;;;;;4906773;29;20052;-55
2021/08/28 08:16:52;;;;;;;8.93;6.18;;;21.20;99.90;;;;;;4904957;29;20084;-55
2021/08/28 08:19:48;;;;;;;13.55;9.98;;;21.10;99.90;;;;;;4887586;29;20060;-55
2021/08/28 08:22:34;;;;;;;10.18;4.55;;;21.30;99.90;;;;;;4906455;29;20115;-55
2021/08/28 08:25:27;;;;;;;15.35;12.05;;;21.20;99.90;;;;;;4906308;29;20143;-55
2021/08/28 08:28:28;;;;;;;9.48;7.10;;;21.10;99.90;;;;;;4834191;29;20089;-52
2021/08/28 08:31:16;;;;;;;19.05;14.73;;;20.60;99.90;;;;;;4839075;29;20065;-52
2021/08/28 08:33:43;;;;;;;11.57;3.70;;;20.40;99.90;;;;;;4835757;29;20085;-54
2021/08/28 08:36:15;;;;;;;8.77;3.58;;;20.10;99.90;;;;;;4834287;29;20065;-49
2021/08/28 08:38:41;;;;;;;9.60;5.88;;;19.70;99.90;;;;;;4838058;29;20068;-49
2021/08/28 08:41:08;;;;;;;8.55;3.53;;;19.40;99.90;;;;;;4831993;29;20066;-48
2021/08/28 08:43:37;;;;;;;10.35;6.72;;;19.30;99.90;;;;;;4830570;29;20062;-52
2021/08/28 08:46:04;;;;;;;16.00;12.75;;;19.90;99.90;;;;;;4835369;29;20235;-52
2021/08/28 08:48:41;;;;;;;24.50;20.38;;;20.60;99.90;;;;;;4835988;29;20134;-50
2021/08/28 08:51:09;;;;;;;9.30;5.22;;;21.30;99.90;;;;;;4821502;29;20065;-52
2021/08/28 08:53:36;;;;;;;14.82;10.88;;;21.80;99.90;;;;;;4838788;29;20053;-53
2021/08/28 08:56:08;;;;;;;15.50;11.68;;;21.60;99.90;;;;;;4843471;29;20438;-53
2021/08/28 08:58:36;;;;;;;14.43;11.90;;;21.30;99.90;;;;;;4847649;29;20089;-49
2021/08/28 09:01:09;;;;;;;11.77;7.45;;;21.80;99.90;;;;;;4868676;29;20053;-52
2021/08/28 09:03:39;;;;;;;8.18;4.93;;;21.30;99.90;;;;;;4917927;28;20066;-47
2021/08/28 09:06:09;;;;;;;10.20;6.15;;;20.90;99.90;;;;;;4946527;28;20150;-49
2021/08/28 09:08:45;;;;;;;10.57;5.32;;;20.60;99.90;;;;;;4945525;28;20779;-48
2021/08/28 09:11:34;;;;;;;7.25;3.53;;;20.80;99.90;;;;;;4959985;28;20539;-49
2021/08/28 09:14:19;;;;;;;10.90;6.47;;;21.70;99.90;;;;;;4961363;28;20058;-53
2021/08/28 09:16:46;;;;;;;11.10;3.22;;;22.30;99.90;;;;;;4958646;28;20054;-56
2021/08/28 09:19:14;;;;;;;8.05;6.40;;;22.10;99.90;;;;;;4960246;28;20058;-49
2021/08/28 09:21:40;;;;;;;12.55;8.70;;;21.60;99.90;;;;;;4956301;28;20125;-52
2021/08/28 09:24:12;;;;;;;6.45;2.95;;;21.60;99.90;;;;;;4959871;28;20057;-50
2021/08/28 09:26:38;;;;;;;;;;;21.30;99.90;;;;;;4967086;28;20056;-50
2021/08/28 09:29:07;;;;;;;14.85;11.90;;;20.90;99.90;;;;;;4967243;28;20025;-51
2021/08/28 09:31:44;;;;;;;18.05;14.68;;;20.80;99.90;;;;;;4966656;28;20448;-51
2021/08/28 09:34:25;;;;;;;9.70;4.55;;;20.60;99.90;;;;;;4959362;28;20057;-52
2021/08/28 09:36:52;;;;;;;13.13;7.85;;;20.90;99.90;;;;;;4965905;28;20052;-50
2021/08/28 09:39:19;;;;;;;8.48;5.20;;;20.90;99.90;;;;;;4959663;28;20047;-53
2021/08/28 09:41:56;;;;;;;5.30;3.63;;;20.80;99.90;;;;;;4964641;28;20492;-49
2021/08/28 09:44:26;;;;;;;7.25;2.40;;;20.70;99.90;;;;;;4964038;28;20054;-46
2021/08/28 09:47:06;;;;;;;8.77;5.00;;;20.60;99.90;;;;;;4965799;28;20062;-51
2021/08/28 09:49:33;;;;;;;7.32;2.60;;;20.70;99.90;;;;;;4967499;28;20314;-52
2021/08/28 09:51:59;;;;;;;5.95;2.53;;;20.70;99.90;;;;;;4967569;28;20055;-49
2021/08/28 09:54:26;;;;;;;7.82;3.30;;;20.50;99.90;;;;;;4965293;28;20051;-48
2021/08/28 09:57:03;;;;;;;4.82;2.15;;;20.70;99.90;;;;;;4956455;28;20139;-49
2021/08/28 09:59:30;;;;;;;5.32;2.67;;;20.60;99.90;;;;;;4962435;28;20485;-49
2021/08/28 10:01:56;;;;;;;8.18;3.47;;;20.40;99.90;;;;;;4965731;28;20101;-49
2021/08/28 10:04:22;;;;;;;5.35;2.13;;;20.20;99.90;;;;;;4967145;28;20055;-51
2021/08/28 10:06:50;;;;;;;5.50;2.85;;;20.20;99.90;;;;;;4963973;28;20053;-53
2021/08/28 10:09:18;;;;;;;21.92;16.63;;;20.20;99.90;;;;;;4965324;28;20054;-50
2021/08/28 10:11:52;;;;;;;35.65;28.70;;;20.10;99.90;;;;;;4952754;28;20039;-54
2021/08/28 10:14:19;;;;;;;16.77;11.73;;;20.10;99.90;;;;;;4967883;28;20047;-50
2021/08/28 10:16:47;;;;;;;10.45;5.63;;;20.10;99.90;;;;;;4968256;28;20423;-49
2021/08/28 10:19:17;;;;;;;8.40;4.03;;;20.40;99.90;;;;;;4965995;28;20821;-50
2021/08/28 10:21:47;;;;;;;11.02;8.07;;;20.90;99.90;;;;;;4954908;28;20516;-53
2021/08/28 10:24:14;;;;;;;18.05;10.93;;;21.10;99.90;;;;;;4960682;28;20105;-52
2021/08/28 10:26:43;;;;;;;9.23;6.20;;;21.50;99.90;;;;;;4968861;28;20069;-49
2021/08/28 10:29:13;;;;;;;9.70;6.00;;;21.70;99.90;;;;;;4962954;28;20055;-51
2021/08/28 10:31:41;;;;;;;7.35;2.75;;;21.50;99.90;;;;;;4954890;28;20057;-53
2021/08/28 10:34:09;;;;;;;7.30;4.18;;;21.70;99.90;;;;;;4964182;28;20058;-53
2021/08/28 10:36:36;;;;;;;26.63;23.75;;;21.90;99.90;;;;;;4957299;28;20058;-52
2021/08/28 10:39:06;;;;;;;20.88;18.67;;;22.20;99.90;;;;;;4963710;28;20058;-53
2021/08/28 10:41:32;;;;;;;31.05;27.70;;;22.80;99.90;;;;;;4949404;28;20058;-51
2021/08/28 10:43:59;;;;;;;7.50;3.53;;;23.00;99.90;;;;;;4961822;28;20054;-52
2021/08/28 10:46:29;;;;;;;36.75;33.03;;;22.60;99.90;;;;;;4942636;28;20059;-51
2021/08/28 10:49:18;;;;;;;10.40;8.48;;;22.40;99.90;;;;;;4958461;28;20058;-53
2021/08/28 10:51:44;;;;;;;28.35;20.25;;;22.00;99.90;;;;;;4938206;28;20058;-53
2021/08/28 10:54:12;;;;;;;18.00;10.35;;;21.60;99.90;;;;;;4970159;28;20055;-53
2021/08/28 10:56:48;;;;;;;9.80;4.78;;;21.30;99.90;;;;;;4966388;28;20054;-54
2021/08/28 10:59:29;;;;;;;10.93;7.05;;;20.90;99.90;;;;;;4968129;28;20058;-50
2021/08/28 11:02:08;;;;;;;9.30;5.68;;;21.20;99.90;;;;;;4968059;28;20047;-51
2021/08/28 11:04:37;;;;;;;6.03;3.10;;;21.40;99.90;;;;;;4966502;28;20069;-51
2021/08/28 11:07:18;;;;;;;7.57;3.22;;;21.60;99.90;;;;;;4961641;28;20058;-52
2021/08/28 11:10:16;;;;;;;10.43;5.18;;;22.00;99.90;;;;;;4958955;28;20613;-52
2021/08/28 11:12:47;;;;;;;6.88;2.25;;;22.60;99.90;;;;;;4874633;29;20054;-51
2021/08/28 11:15:25;;;;;;;8.68;5.53;;;23.00;99.90;;;;;;4893109;29;20088;-52
2021/08/28 11:17:54;;;;;;;6.97;3.08;;;23.30;99.90;;;;;;4896800;29;20060;-46
2021/08/28 11:20:51;;;;;;;4.25;1.55;;;22.80;99.90;;;;;;4908165;29;20056;-47
2021/08/28 11:23:21;;;;;;;9.10;2.90;;;22.20;99.90;;;;;;4910427;29;20125;-45
2021/08/28 11:25:51;;;;;;;6.43;2.50;;;21.80;99.90;;;;;;4884864;29;20501;-44
2021/08/28 11:28:20;;;;;;;5.70;1.80;;;21.40;99.90;;;;;;4891812;29;20052;-45
2021/08/28 11:30:47;;;;;;;5.93;2.47;;;21.00;99.90;;;;;;4890861;29;20053;-45
2021/08/28 11:33:19;;;;;;;5.32;1.90;;;20.50;99.90;;;;;;4891076;29;20232;-47
2021/08/28 11:35:56;;;;;;;7.68;2.10;;;20.50;99.90;;;;;;4892430;29;20601;-45
2021/08/28 11:38:45;;;;;;;8.00;2.67;;;21.00;99.90;;;;;;4900045;29;20057;-46
2021/08/28 11:41:23;;;;;;;9.05;1.75;;;20.90;99.90;;;;;;4891263;29;20537;-44
2021/08/28 11:43:51;;;;;;;5.10;1.85;;;21.00;99.90;;;;;;4910518;29;20055;-45
2021/08/28 11:46:21;;;;;;;7.32;2.42;;;20.80;99.90;;;;;;4878776;29;20064;-45
2021/08/28 11:48:48;;;;;;;5.87;1.87;;;20.80;99.90;;;;;;4945532;28;20085;-44
2021/08/28 11:51:15;;;;;;;4.75;1.83;;;20.50;99.90;;;;;;4966484;28;20495;-47
2021/08/28 11:53:48;;;;;;;30.50;26.42;;;20.30;99.90;;;;;;4963543;28;20075;-45
2021/08/28 11:56:17;;;;;;;20.00;15.82;;;20.20;99.90;;;;;;4953101;28;20046;-48
2021/08/28 11:59:01;;;;;;;6.13;3.10;;;20.40;99.90;;;;;;4951466;28;20504;-44
2021/08/28 12:01:41;;;;;;;8.30;3.38;;;20.50;99.90;;;;;;4950185;28;20118;-44
2021/08/28 12:04:12;;;;;;;15.18;11.43;;;20.60;99.90;;;;;;4967322;28;20059;-45
2021/08/28 12:06:42;;;;;;;40.92;35.58;;;21.00;99.90;;;;;;4968302;28;20055;-44
2021/08/28 12:09:14;;;;;;;7.10;4.82;;;21.30;99.90;;;;;;4955447;28;20535;-44
2021/08/28 12:11:49;;;;;;;8.52;6.78;;;21.70;99.90;;;;;;4950480;29;20055;-46
2021/08/28 12:14:16;;;;;;;8.68;6.90;;;22.20;99.90;;;;;;4960057;28;20058;-49
2021/08/28 12:16:43;;;;;;;21.15;18.98;;;22.90;99.90;;;;;;4951178;28;20480;-46
2021/08/28 12:19:21;;;;;;;6.50;3.47;;;23.40;99.90;;;;;;4952590;28;20173;-47
2021/08/28 12:21:54;;;;;;;13.80;10.82;;;23.20;99.90;;;;;;4956901;28;20578;-45
2021/08/28 12:24:25;;;;;;;11.35;5.45;;;22.50;96.90;;;;;;4967060;28;20111;-54
2021/08/28 12:27:02;;;;;;;5.72;4.13;;;22.40;99.90;;;;;;4964362;28;20063;-56
2021/08/28 12:29:43;;;;;;;34.20;30.77;;;22.10;99.90;;;;;;4943915;28;20506;-55
2021/08/28 12:32:21;;;;;;;7.07;2.90;;;21.90;99.90;;;;;;4959995;28;20059;-55
2021/08/28 12:34:51;;;;;;;8.65;6.60;;;21.70;99.90;;;;;;4941995;28;20089;-55
2021/08/28 12:37:20;;;;;;;7.13;3.92;;;21.60;99.90;;;;;;4924041;28;20090;-57
2021/08/28 12:39:55;;;;;;;16.52;12.82;;;21.40;99.90;;;;;;4957059;28;20061;-46
2021/08/28 12:42:25;;;;;;;19.08;15.45;;;21.30;99.90;;;;;;4964312;28;20852;-45
2021/08/28 12:44:54;;;;;;;50.60;45.25;;;21.30;99.90;;;;;;4959626;28;20575;-48
2021/08/28 12:47:23;;;;;;;19.63;17.55;;;21.30;99.90;;;;;;4960720;28;20102;-45
2021/08/28 12:49:53;;;;;;;15.80;12.73;;;21.10;99.90;;;;;;4967923;28;20145;-48
2021/08/28 12:52:20;;;;;;;14.23;11.23;;;20.90;99.90;;;;;;4964202;28;20082;-47
2021/08/28 12:54:56;;;;;;;8.55;6.28;;;20.80;99.90;;;;;;4965133;28;20108;-47
2021/08/28 12:57:26;;;;;;;19.75;16.58;;;20.80;99.90;;;;;;4962547;28;20063;-45
2021/08/28 12:59:55;;;;;;;8.43;4.70;;;20.70;99.90;;;;;;4964133;28;20515;-45
2021/08/28 13:02:24;;;;;;;24.10;20.95;;;20.50;99.90;;;;;;4963133;28;20133;-47
2021/08/28 13:04:57;;;;;;;18.27;16.13;;;20.40;99.90;;;;;;4967857;28;20050;-48
2021/08/28 13:07:35;;;;;;;11.93;8.82;;;20.30;99.90;;;;;;4939455;28;20097;-46
2021/08/28 13:10:30;;;;;;;7.60;4.47;;;20.10;99.90;;;;;;4958657;28;20086;-46